createdAt,value
2023-05-25T00:00:02.105Z,5.30
2023-05-25T00:02:30.907Z,5.85
2023-05-25T00:05:01.090Z,5.47
2023-05-25T00:07:31.009Z,5.85
2023-05-25T00:09:59.656Z,5.25
2023-05-25T00:12:28.235Z,6.43
2023-05-25T00:14:56.965Z,5.88
2023-05-25T00:17:25.538Z,6.45
2023-05-25T00:19:58.334Z,5.53
2023-05-25T00:22:29.046Z,5.82
2023-05-25T00:24:58.972Z,5.70
2023-05-25T00:27:27.569Z,6.25
2023-05-25T00:29:56.449Z,6.55
2023-05-25T00:32:24.992Z,5.63
2023-05-25T00:34:53.577Z,5.90
2023-05-25T00:37:22.212Z,6.75
2023-05-25T00:39:50.747Z,5.85
2023-05-25T00:42:21.478Z,6.22
2023-05-25T00:44:49.980Z,6.57
2023-05-25T00:47:18.688Z,6.30
2023-05-25T00:49:47.347Z,5.50
2023-05-25T00:52:16.847Z,6.20
2023-05-25T00:54:46.903Z,6.35
2023-05-25T00:57:16.830Z,6.03
2023-05-25T00:59:48.400Z,6.88
2023-05-25T01:02:19.302Z,6.60
2023-05-25T01:04:49.540Z,6.60
2023-05-25T01:07:20.077Z,6.22
2023-05-25T01:09:48.857Z,6.07
2023-05-25T01:12:17.660Z,5.82
2023-05-25T01:14:48.567Z,6.38
2023-05-25T01:17:18.228Z,6.45
2023-05-25T01:19:54.789Z,6.18
2023-05-25T01:22:34.593Z,7.13
2023-05-25T01:25:05.509Z,6.38
2023-05-25T01:27:39.539Z,6.57
2023-05-25T01:30:09.730Z,6.10
2023-05-25T01:32:38.508Z,7.00
2023-05-25T01:35:08.673Z,7.00
2023-05-25T01:37:39.918Z,6.53
2023-05-25T01:40:09.645Z,6.43
2023-05-25T01:42:38.129Z,7.13
2023-05-25T01:45:07.594Z,6.30
2023-05-25T01:47:43.154Z,6.60
2023-05-25T01:50:16.529Z,6.15
2023-05-25T01:52:49.852Z,5.97
2023-05-25T01:55:20.304Z,6.28
2023-05-25T01:57:58.062Z,6.40
2023-05-25T02:00:27.654Z,6.05
2023-05-25T02:02:56.472Z,7.25
2023-05-25T02:05:25.223Z,6.00
2023-05-25T02:07:55.268Z,5.72
2023-05-25T02:10:23.751Z,6.28
2023-05-25T02:12:52.387Z,6.80
2023-05-25T02:15:20.988Z,6.72
2023-05-25T02:17:49.812Z,6.57
2023-05-25T02:20:18.353Z,6.22
2023-05-25T02:22:47.079Z,6.13
2023-05-25T02:25:17.081Z,6.43
2023-05-25T02:27:45.793Z,6.97
2023-05-25T02:30:14.600Z,5.88
2023-05-25T02:32:43.328Z,7.07
2023-05-25T02:35:12.082Z,7.03
2023-05-25T02:37:40.841Z,6.32
2023-05-25T02:40:10.919Z,6.32
2023-05-25T02:42:40.882Z,7.50
2023-05-25T02:45:10.699Z,6.30
2023-05-25T02:47:39.523Z,6.07
2023-05-25T02:50:08.750Z,6.43
2023-05-25T02:52:37.279Z,5.80
2023-05-25T02:55:06.121Z,6.05
2023-05-25T02:57:34.707Z,6.10
2023-05-25T03:00:06.963Z,6.28
2023-05-25T03:02:35.608Z,6.68
2023-05-25T03:05:04.758Z,5.88
2023-05-25T03:07:33.420Z,7.22
2023-05-25T03:10:01.967Z,6.35
2023-05-25T03:12:30.528Z,6.57
2023-05-25T03:14:58.993Z,7.25
2023-05-25T03:17:29.012Z,7.07
2023-05-25T03:19:57.568Z,6.90
2023-05-25T03:22:27.203Z,6.22
2023-05-25T03:24:56.322Z,7.72
2023-05-25T03:27:24.807Z,7.10
2023-05-25T03:29:53.652Z,6.47
2023-05-25T03:32:24.265Z,6.72
2023-05-25T03:34:54.404Z,6.95
2023-05-25T03:37:22.978Z,7.10
2023-05-25T03:39:51.533Z,7.70
2023-05-25T03:42:20.042Z,7.50
2023-05-25T03:44:48.599Z,6.40
2023-05-25T03:47:19.629Z,6.82
2023-05-25T03:49:48.190Z,6.95
2023-05-25T03:52:18.132Z,6.95
2023-05-25T03:54:46.871Z,6.88
2023-05-25T03:57:15.341Z,6.85
2023-05-25T03:59:43.885Z,7.00
2023-05-25T04:02:12.650Z,6.97
2023-05-25T04:04:42.127Z,6.75
2023-05-25T04:07:11.079Z,7.00
2023-05-25T04:09:41.333Z,6.88
2023-05-25T04:12:10.065Z,8.23
2023-05-25T04:14:38.561Z,7.68
2023-05-25T04:17:07.347Z,6.20
2023-05-25T04:19:36.084Z,7.97
2023-05-25T04:22:04.992Z,8.20
2023-05-25T04:24:34.383Z,7.63
2023-05-25T04:27:04.321Z,7.05
2023-05-25T04:29:33.346Z,7.75
2023-05-25T04:32:02.804Z,7.57
2023-05-25T04:34:33.812Z,8.18
2023-05-25T04:37:05.888Z,7.30
2023-05-25T04:39:34.428Z,8.07
2023-05-25T04:42:04.747Z,8.50
2023-05-25T04:44:33.532Z,7.45
2023-05-25T04:47:02.541Z,7.82
2023-05-25T04:49:31.569Z,7.60
2023-05-25T04:52:00.394Z,7.95
2023-05-25T04:54:28.967Z,7.82
2023-05-25T04:56:58.022Z,8.85
2023-05-25T04:59:28.074Z,8.55
2023-05-25T05:01:56.670Z,7.35
2023-05-25T05:04:25.376Z,7.45
2023-05-25T05:06:56.062Z,7.95
2023-05-25T05:09:26.466Z,8.57
2023-05-25T05:11:54.920Z,7.47
2023-05-25T05:14:23.504Z,7.25
2023-05-25T05:16:53.578Z,7.07
2023-05-25T05:19:23.032Z,8.45
2023-05-25T05:21:51.594Z,8.50
2023-05-25T05:24:20.883Z,8.35
2023-05-25T05:29:24.128Z,8.73
2023-05-25T05:31:54.107Z,7.78
2023-05-25T05:34:22.806Z,8.45
2023-05-25T05:36:58.095Z,9.18
2023-05-25T05:39:27.432Z,8.90
2023-05-25T05:41:56.157Z,8.50
2023-05-25T05:44:27.915Z,9.07
2023-05-25T05:47:01.897Z,8.85
2023-05-25T05:49:31.248Z,8.82
2023-05-25T05:52:00.210Z,8.40
2023-05-25T05:54:28.833Z,8.77
2023-05-25T05:56:57.395Z,8.80
2023-05-25T05:59:26.639Z,9.23
2023-05-25T06:01:55.286Z,8.77
2023-05-25T06:04:28.925Z,9.55
2023-05-25T06:06:57.798Z,8.50
2023-05-25T06:09:26.537Z,8.70
2023-05-25T06:11:55.145Z,9.32
2023-05-25T06:14:24.476Z,9.23
2023-05-25T06:16:54.243Z,8.73
2023-05-25T06:19:23.034Z,8.63
2023-05-25T06:21:52.968Z,8.45
2023-05-25T06:24:21.491Z,9.88
2023-05-25T06:26:50.121Z,8.90
2023-05-25T06:29:18.587Z,8.43
2023-05-25T06:31:47.214Z,8.93
2023-05-25T06:34:15.923Z,9.20
2023-05-25T06:36:44.462Z,8.48
2023-05-25T06:39:14.852Z,8.02
2023-05-25T06:41:43.423Z,8.75
2023-05-25T06:44:12.048Z,8.82
2023-05-25T06:46:41.517Z,8.48
2023-05-25T06:49:10.212Z,8.57
2023-05-25T06:51:38.844Z,9.60
2023-05-25T06:54:08.578Z,8.57
2023-05-25T06:56:38.540Z,8.85
2023-05-25T06:59:07.370Z,8.98
2023-05-25T07:01:36.681Z,8.10
2023-05-25T07:04:05.370Z,8.65
2023-05-25T07:06:36.888Z,8.77
2023-05-25T07:09:05.474Z,8.40
2023-05-25T07:11:34.049Z,8.40
2023-05-25T07:14:03.968Z,7.53
2023-05-25T07:16:32.856Z,8.30
2023-05-25T07:19:01.494Z,7.97
2023-05-25T07:21:34.229Z,7.28
2023-05-25T07:24:02.903Z,7.60
2023-05-25T07:26:33.438Z,8.10
2023-05-25T07:29:02.332Z,8.90
2023-05-25T07:31:32.498Z,8.13
2023-05-25T07:34:01.215Z,8.13
2023-05-25T07:36:29.987Z,9.57
2023-05-25T07:38:58.657Z,10.27
2023-05-25T07:41:27.439Z,10.07
2023-05-25T07:43:56.165Z,8.63
2023-05-25T07:46:26.094Z,9.35
2023-05-25T07:48:58.455Z,9.70
2023-05-25T07:51:29.178Z,9.85
2023-05-25T07:53:58.530Z,8.90
2023-05-25T07:56:29.064Z,10.85
2023-05-25T07:59:00.115Z,9.38
2023-05-25T08:01:29.030Z,9.73
2023-05-25T08:03:59.071Z,9.35
2023-05-25T08:06:27.740Z,9.07
2023-05-25T08:08:56.512Z,9.40
2023-05-25T08:11:27.901Z,9.10
2023-05-25T08:13:56.548Z,7.53
2023-05-25T08:16:25.587Z,6.90
2023-05-25T08:18:54.895Z,7.43
2023-05-25T08:21:25.475Z,7.22
2023-05-25T08:23:54.510Z,6.40
2023-05-25T08:28:55.272Z,7.28
2023-05-25T08:31:24.749Z,6.93
2023-05-25T08:33:53.394Z,6.32
2023-05-25T08:36:22.797Z,10.63
2023-05-25T08:38:52.879Z,10.43
2023-05-25T08:41:23.210Z,11.48
2023-05-25T08:43:52.000Z,9.63
2023-05-25T08:46:29.428Z,8.80
2023-05-25T08:49:02.214Z,8.20
2023-05-25T08:51:32.793Z,7.57
2023-05-25T08:54:05.361Z,9.00
2023-05-25T08:56:37.136Z,9.98
2023-05-25T08:59:11.560Z,11.93
2023-05-25T09:01:45.484Z,11.02
2023-05-25T09:04:15.140Z,11.43
2023-05-25T09:06:57.127Z,13.20
2023-05-25T09:09:38.235Z,11.98
2023-05-25T09:12:07.424Z,13.77
2023-05-25T09:14:37.858Z,13.25
2023-05-25T09:17:06.823Z,12.93
2023-05-25T09:19:37.941Z,12.50
2023-05-25T09:22:15.056Z,12.60
2023-05-25T09:24:46.641Z,13.10
2023-05-25T09:27:17.865Z,12.45
2023-05-25T09:29:47.444Z,13.88
2023-05-25T09:32:16.736Z,13.50
2023-05-25T09:34:45.587Z,13.63
2023-05-25T09:37:14.799Z,16.58
2023-05-25T09:39:44.174Z,15.57
2023-05-25T09:42:14.237Z,14.15
2023-05-25T09:44:45.894Z,14.45
2023-05-25T09:47:16.920Z,11.55
2023-05-25T09:49:47.841Z,11.07
2023-05-25T09:52:17.834Z,11.15
2023-05-25T09:54:46.788Z,11.23
2023-05-25T09:57:17.481Z,11.20
2023-05-25T09:59:46.252Z,9.80
2023-05-25T10:02:15.023Z,10.23
2023-05-25T10:04:43.685Z,10.93
2023-05-25T10:07:12.402Z,10.63
2023-05-25T10:09:42.410Z,9.88
2023-05-25T10:12:11.269Z,9.50
2023-05-25T10:14:41.318Z,9.73
2023-05-25T10:17:12.280Z,9.02
2023-05-25T10:19:43.470Z,8.60
2023-05-25T10:22:15.899Z,8.95
2023-05-25T10:24:47.101Z,8.27
2023-05-25T10:27:26.192Z,7.95
2023-05-25T10:29:58.228Z,8.95
2023-05-25T10:32:27.332Z,8.23
2023-05-25T10:34:57.396Z,8.50
2023-05-25T10:37:29.135Z,8.43
2023-05-25T10:39:58.812Z,7.70
2023-05-25T10:42:29.693Z,7.03
2023-05-25T10:44:59.904Z,7.07
2023-05-25T10:47:28.700Z,6.43
2023-05-25T10:49:58.266Z,7.53
2023-05-25T10:52:29.650Z,7.05
2023-05-25T10:54:59.064Z,6.20
2023-05-25T10:57:27.784Z,6.38
2023-05-25T11:00:00.176Z,6.15
2023-05-25T11:02:32.623Z,7.07
2023-05-25T11:05:19.867Z,7.15
2023-05-25T11:07:54.499Z,6.63
2023-05-25T11:10:38.110Z,6.60
2023-05-25T11:13:21.506Z,6.15
2023-05-25T11:15:50.391Z,6.25
2023-05-25T11:18:20.329Z,6.40
2023-05-25T11:20:49.288Z,6.65
2023-05-25T11:23:28.616Z,6.40
2023-05-25T11:26:08.144Z,6.57
2023-05-25T11:28:36.793Z,5.88
2023-05-25T11:31:07.907Z,6.72
2023-05-25T11:33:38.133Z,7.38
2023-05-25T11:36:07.995Z,7.00
2023-05-25T11:38:37.627Z,5.70
2023-05-25T11:41:06.352Z,5.53
2023-05-25T11:43:36.857Z,5.82
2023-05-25T11:46:10.432Z,5.10
2023-05-25T11:48:44.717Z,4.95
2023-05-25T11:51:13.570Z,6.60
2023-05-25T11:53:46.454Z,7.03
2023-05-25T11:56:27.044Z,6.30
2023-05-25T11:59:02.881Z,5.65
2023-05-25T12:01:32.539Z,5.80
2023-05-25T12:04:10.248Z,5.18
2023-05-25T12:06:39.093Z,6.13
2023-05-25T12:09:13.558Z,7.25
2023-05-25T12:11:45.992Z,6.93
2023-05-25T12:14:14.629Z,5.85
2023-05-25T12:16:43.782Z,5.47
2023-05-25T12:19:14.227Z,5.78
2023-05-25T12:21:43.288Z,5.72
2023-05-25T12:24:16.029Z,6.07
2023-05-25T12:26:51.091Z,6.63
2023-05-25T12:29:19.905Z,6.28
2023-05-25T12:31:48.883Z,6.15
2023-05-25T12:34:19.495Z,6.25
2023-05-25T12:36:50.072Z,6.28
2023-05-25T12:39:19.197Z,6.25
2023-05-25T12:41:54.312Z,6.63
2023-05-25T12:44:25.545Z,6.43
2023-05-25T12:46:55.096Z,6.65
2023-05-25T12:49:37.951Z,6.72
2023-05-25T12:52:07.390Z,6.60
2023-05-25T12:54:36.918Z,6.05
2023-05-25T12:57:06.907Z,5.97
2023-05-25T12:59:37.787Z,5.53
2023-05-25T13:02:07.914Z,5.18
2023-05-25T13:04:38.690Z,5.68
2023-05-25T13:07:08.524Z,6.60
2023-05-25T13:09:37.787Z,6.30
2023-05-25T13:12:07.248Z,5.78
2023-05-25T13:14:36.085Z,7.07
2023-05-25T13:17:05.080Z,6.28
2023-05-25T13:19:33.804Z,5.90
2023-05-25T13:22:04.041Z,6.57
2023-05-25T13:24:32.761Z,6.18
2023-05-25T13:27:01.648Z,5.60
2023-05-25T13:29:30.288Z,5.60
2023-05-25T13:31:58.887Z,5.43
2023-05-25T13:34:27.804Z,5.20
2023-05-25T13:36:57.005Z,5.70
2023-05-25T13:39:26.948Z,4.75
2023-05-25T13:41:55.472Z,4.88
2023-05-25T13:44:24.030Z,4.82
2023-05-25T13:46:53.244Z,4.15
2023-05-25T13:49:22.244Z,4.53
2023-05-25T13:51:51.976Z,3.97
2023-05-25T13:54:21.785Z,4.43
2023-05-25T13:56:51.704Z,4.47
2023-05-25T13:59:20.223Z,5.97
2023-05-25T14:01:48.805Z,6.93
2023-05-25T14:04:17.342Z,5.10
2023-05-25T14:06:46.919Z,5.32
2023-05-25T14:09:16.245Z,5.22
2023-05-25T14:11:45.064Z,4.38
2023-05-25T14:14:29.935Z,4.97
2023-05-25T14:17:00.525Z,4.80
2023-05-25T14:19:29.445Z,4.97
2023-05-25T14:24:30.257Z,4.93
2023-05-25T14:26:59.092Z,3.70
2023-05-25T14:29:29.555Z,4.50
2023-05-25T14:31:58.799Z,4.47
2023-05-25T14:34:27.996Z,4.15
2023-05-25T14:36:57.463Z,4.05
2023-05-25T14:39:26.876Z,4.22
2023-05-25T14:41:56.314Z,4.32
2023-05-25T14:44:25.083Z,4.15
2023-05-25T14:46:55.229Z,4.15
2023-05-25T14:49:25.199Z,4.10
2023-05-25T14:51:53.983Z,4.03
2023-05-25T14:54:22.629Z,4.40
2023-05-25T14:56:51.217Z,4.45
2023-05-25T14:59:19.717Z,4.28
2023-05-25T15:01:48.702Z,3.90
2023-05-25T15:04:18.873Z,4.20
2023-05-25T15:06:47.622Z,3.90
2023-05-25T15:09:17.019Z,3.70
2023-05-25T15:11:45.622Z,3.85
2023-05-25T15:14:14.285Z,3.90
2023-05-25T15:16:43.015Z,3.58
2023-05-25T15:19:13.295Z,3.90
2023-05-25T15:21:45.277Z,3.50
2023-05-25T15:24:16.715Z,3.60
2023-05-25T15:26:45.591Z,3.50
2023-05-25T15:29:14.356Z,3.80
2023-05-25T15:31:43.016Z,3.70
2023-05-25T15:34:11.988Z,3.90
2023-05-25T15:36:40.604Z,3.95
2023-05-25T15:39:11.580Z,3.83
2023-05-25T15:41:40.249Z,3.60
2023-05-25T15:44:12.627Z,3.90
2023-05-25T15:46:41.854Z,4.05
2023-05-25T15:49:12.003Z,4.53
2023-05-25T15:51:41.977Z,4.10
2023-05-25T15:54:14.623Z,3.67
2023-05-25T15:56:43.618Z,3.70
2023-05-25T15:59:13.470Z,3.70
2023-05-25T16:01:42.403Z,3.60
2023-05-25T16:04:11.130Z,3.70
2023-05-25T16:06:41.544Z,3.63
2023-05-25T16:09:10.132Z,3.92
2023-05-25T16:11:40.300Z,4.15
2023-05-25T16:14:08.939Z,3.67
2023-05-25T16:16:39.176Z,3.65
2023-05-25T16:19:07.906Z,3.58
2023-05-25T16:21:38.357Z,3.80
2023-05-25T16:24:07.300Z,4.35
2023-05-25T16:26:36.493Z,4.85
2023-05-25T16:29:06.998Z,4.40
2023-05-25T16:31:39.732Z,4.18
2023-05-25T16:34:08.616Z,3.80
2023-05-25T16:36:37.450Z,3.80
2023-05-25T16:39:06.243Z,3.85
2023-05-25T16:41:35.381Z,3.90
2023-05-25T16:44:04.143Z,3.55
2023-05-25T16:46:34.917Z,3.70
2023-05-25T16:49:03.966Z,3.47
2023-05-25T16:51:32.724Z,3.58
2023-05-25T16:54:01.894Z,4.07
2023-05-25T16:56:31.464Z,3.85
2023-05-25T16:59:00.315Z,3.92
2023-05-25T17:01:29.893Z,3.72
2023-05-25T17:04:00.262Z,4.10
2023-05-25T17:06:29.533Z,3.72
2023-05-25T17:08:58.387Z,4.00
2023-05-25T17:11:28.280Z,3.47
2023-05-25T17:13:57.685Z,4.22
2023-05-25T17:16:26.588Z,3.92
2023-05-25T17:18:55.885Z,4.10
2023-05-25T17:21:27.204Z,3.72
2023-05-25T17:23:56.285Z,3.80
2023-05-25T17:26:25.166Z,3.58
2023-05-25T17:28:54.367Z,4.03
2023-05-25T17:31:23.535Z,3.70
2023-05-25T17:33:52.464Z,4.10
2023-05-25T17:36:23.030Z,4.45
2023-05-25T17:38:53.605Z,4.25
2023-05-25T17:41:23.040Z,4.43
2023-05-25T17:43:51.934Z,4.32
2023-05-25T17:46:21.095Z,4.07
2023-05-25T17:48:50.268Z,4.50
2023-05-25T17:51:20.247Z,4.28
2023-05-25T17:53:49.112Z,3.80
2023-05-25T17:56:19.362Z,4.30
2023-05-25T17:58:48.537Z,4.38
2023-05-25T18:01:17.756Z,4.03
2023-05-25T18:03:47.070Z,4.13
2023-05-25T18:06:15.984Z,4.22
2023-05-25T18:08:44.815Z,4.90
2023-05-25T18:11:13.741Z,4.18
2023-05-25T18:13:43.830Z,3.47
2023-05-25T18:16:12.754Z,4.40
2023-05-25T18:18:41.571Z,4.20
2023-05-25T18:21:10.267Z,5.07
2023-05-25T18:23:39.017Z,4.50
2023-05-25T18:26:08.018Z,4.43
2023-05-25T18:28:36.833Z,4.05
2023-05-25T18:31:08.821Z,4.18
2023-05-25T18:33:37.563Z,4.75
2023-05-25T18:36:06.441Z,4.20
2023-05-25T18:38:35.286Z,4.55
2023-05-25T18:41:04.287Z,4.65
2023-05-25T18:43:33.057Z,4.25
2023-05-25T18:46:01.758Z,4.82
2023-05-25T18:48:32.503Z,4.88
2023-05-25T18:51:03.010Z,3.85
2023-05-25T18:53:32.285Z,5.15
2023-05-25T18:56:01.131Z,4.30
2023-05-25T18:58:29.975Z,4.00
2023-05-25T19:00:58.664Z,4.47
2023-05-25T19:03:27.902Z,4.78
2023-05-25T19:05:58.408Z,5.13
2023-05-25T19:08:27.143Z,4.63
2023-05-25T19:10:56.022Z,4.13
2023-05-25T19:13:24.920Z,5.05
2023-05-25T19:15:53.735Z,5.28
2023-05-25T19:18:22.749Z,4.25
2023-05-25T19:20:51.975Z,4.75
2023-05-25T19:23:22.320Z,4.97
2023-05-25T19:25:51.203Z,4.78
2023-05-25T19:28:20.033Z,4.90
2023-05-25T19:30:49.249Z,4.75
2023-05-25T19:33:18.351Z,4.45
2023-05-25T19:35:47.809Z,4.65
2023-05-25T19:38:17.039Z,4.38
2023-05-25T19:40:49.469Z,4.53
2023-05-25T19:43:18.104Z,3.97
2023-05-25T19:45:47.006Z,4.85
2023-05-25T19:48:17.235Z,5.75
2023-05-25T19:50:46.788Z,4.40
2023-05-25T19:53:15.508Z,4.88
2023-05-25T19:55:44.433Z,4.85
2023-05-25T19:58:14.626Z,4.47
2023-05-25T20:00:43.370Z,4.45
2023-05-25T20:03:12.564Z,5.28
2023-05-25T20:05:41.581Z,4.47
2023-05-25T20:08:10.378Z,4.63
2023-05-25T20:10:39.705Z,4.60
2023-05-25T20:13:09.334Z,5.70
2023-05-25T20:15:39.692Z,4.70
2023-05-25T20:18:08.567Z,5.43
2023-05-25T20:20:38.743Z,4.95
2023-05-25T20:23:07.368Z,4.93
2023-05-25T20:25:36.406Z,5.38
2023-05-25T20:28:06.040Z,5.30
2023-05-25T20:30:34.785Z,4.88
2023-05-25T20:33:07.413Z,5.50
2023-05-25T20:35:38.419Z,4.95
2023-05-25T20:38:07.224Z,5.00
2023-05-25T20:40:36.593Z,5.88
2023-05-25T20:43:05.310Z,5.05
2023-05-25T20:45:34.502Z,5.38
2023-05-25T20:48:04.039Z,6.03
2023-05-25T20:50:34.230Z,5.22
2023-05-25T20:53:02.839Z,5.22
2023-05-25T20:55:31.708Z,6.03
2023-05-25T20:58:01.344Z,6.03
2023-05-25T21:00:30.137Z,5.57
2023-05-25T21:02:58.916Z,5.45
2023-05-25T21:05:27.587Z,5.30
2023-05-25T21:07:58.474Z,6.20
2023-05-25T21:10:27.111Z,5.75
2023-05-25T21:12:55.806Z,5.88
2023-05-25T21:15:25.112Z,5.60
2023-05-25T21:17:54.739Z,5.22
2023-05-25T21:20:23.563Z,5.95
2023-05-25T21:22:52.183Z,6.18
2023-05-25T21:25:22.925Z,6.40
2023-05-25T21:27:52.203Z,5.80
2023-05-25T21:30:21.200Z,5.75
2023-05-25T21:32:50.098Z,5.78
2023-05-25T21:35:19.659Z,5.82
2023-05-25T21:37:48.241Z,6.15
2023-05-25T21:40:17.182Z,6.47
2023-05-25T21:42:49.260Z,6.30
2023-05-25T21:45:19.638Z,6.03
2023-05-25T21:47:48.632Z,5.68
2023-05-25T21:50:17.560Z,5.97
2023-05-25T21:52:46.418Z,6.30
2023-05-25T21:55:15.123Z,5.93
2023-05-25T21:57:44.018Z,6.30
2023-05-25T22:00:15.131Z,5.93
2023-05-25T22:02:44.014Z,5.90
2023-05-25T22:05:12.607Z,6.40
2023-05-25T22:07:41.822Z,5.50
2023-05-25T22:10:10.858Z,5.82
2023-05-25T22:12:39.474Z,6.05
2023-05-25T22:15:08.819Z,6.25
2023-05-25T22:17:38.829Z,5.63
2023-05-25T22:20:08.586Z,6.03
2023-05-25T22:22:37.684Z,5.18
2023-05-25T22:27:27.729Z,6.30
2023-05-25T22:29:56.257Z,5.85
2023-05-25T22:32:25.024Z,6.20
2023-05-25T22:34:53.521Z,5.78
2023-05-25T22:37:22.729Z,5.75
2023-05-25T22:39:51.373Z,6.07
2023-05-25T22:42:20.120Z,5.60
2023-05-25T22:44:51.327Z,5.85
2023-05-25T22:47:20.117Z,6.10
2023-05-25T22:49:48.872Z,6.22
2023-05-25T22:52:17.739Z,6.80
2023-05-25T22:54:46.261Z,5.47
2023-05-25T22:57:14.754Z,5.50
2023-05-25T22:59:43.493Z,5.75
2023-05-25T23:02:13.892Z,5.70
2023-05-25T23:04:42.743Z,5.43
2023-05-25T23:07:11.443Z,5.63
2023-05-25T23:09:39.998Z,6.03
2023-05-25T23:12:08.689Z,5.10
2023-05-25T23:14:37.247Z,5.40
2023-05-25T23:17:07.314Z,5.93
2023-05-25T23:19:38.793Z,5.35
2023-05-25T23:22:07.356Z,5.65
2023-05-25T23:24:36.529Z,4.85
2023-05-25T23:27:06.681Z,6.15
2023-05-25T23:29:35.311Z,5.53
2023-05-25T23:32:04.015Z,5.40
2023-05-25T23:34:32.672Z,5.05
2023-05-25T23:37:06.364Z,5.55
2023-05-25T23:39:35.082Z,5.15
2023-05-25T23:42:03.759Z,5.07
2023-05-25T23:44:32.208Z,5.65
2023-05-25T23:47:01.260Z,5.68
2023-05-25T23:49:29.700Z,5.43
2023-05-25T23:51:58.241Z,5.47
2023-05-25T23:54:28.314Z,4.50
2023-05-25T23:56:56.836Z,6.28
2023-05-25T23:59:25.357Z,6.10
